createdAt,value
2018-06-11T00:02:18.505Z,71.70
2018-06-11T00:04:47.496Z,73.30
2018-06-11T00:07:16.532Z,73.10
2018-06-11T00:09:45.521Z,74.10
2018-06-11T00:12:14.504Z,73.40
2018-06-11T00:14:43.535Z,73.30
2018-06-11T00:17:12.624Z,73.90
2018-06-11T00:19:41.597Z,74.50
2018-06-11T00:22:10.591Z,74.60
2018-06-11T00:24:39.581Z,75.00
2018-06-11T00:27:08.599Z,73.00
2018-06-11T00:32:06.250Z,74.00
2018-06-11T00:34:35.226Z,74.20
2018-06-11T00:37:04.232Z,76.30
2018-06-11T00:39:33.200Z,76.40
2018-06-11T00:42:02.200Z,76.10
2018-06-11T00:44:31.186Z,75.80
2018-06-11T00:47:00.196Z,75.40
2018-06-11T00:49:29.238Z,75.40
2018-06-11T00:51:58.208Z,74.80
2018-06-11T00:54:27.196Z,75.40
2018-06-11T00:56:56.208Z,74.90
2018-06-11T00:59:25.213Z,76.40
2018-06-11T01:01:54.172Z,76.20
2018-06-11T01:04:23.188Z,76.60
2018-06-11T01:06:52.192Z,76.00
2018-06-11T01:09:21.379Z,76.80
2018-06-11T01:11:50.396Z,74.10
2018-06-11T01:14:19.424Z,75.50
2018-06-11T01:16:48.428Z,75.50
2018-06-11T01:19:17.432Z,75.60
2018-06-11T01:21:46.440Z,77.20
2018-06-11T01:24:15.407Z,76.00
2018-06-11T01:26:44.480Z,77.70
2018-06-11T01:29:13.572Z,77.40
2018-06-11T01:31:42.672Z,77.60
2018-06-11T01:34:11.654Z,77.40
2018-06-11T01:36:40.726Z,75.50
2018-06-11T01:39:09.766Z,75.30
2018-06-11T01:41:38.764Z,77.60
2018-06-11T01:44:07.729Z,77.80
2018-06-11T01:46:36.712Z,76.90
2018-06-11T01:49:05.755Z,76.90
2018-06-11T01:51:34.722Z,76.30
2018-06-11T01:54:03.704Z,77.70
2018-06-11T01:56:32.670Z,76.10
2018-06-11T01:59:01.670Z,76.20
2018-06-11T02:01:30.657Z,77.70
2018-06-11T02:03:59.953Z,77.50
2018-06-11T02:06:28.946Z,77.80
2018-06-11T02:08:57.956Z,77.20
2018-06-11T02:11:26.937Z,76.00
2018-06-11T02:13:55.954Z,76.10
2018-06-11T02:16:25.158Z,74.90
2018-06-11T02:18:54.256Z,76.00
2018-06-11T02:21:23.278Z,77.80
2018-06-11T02:23:52.258Z,75.90
2018-06-11T02:26:21.269Z,77.00
2018-06-11T02:28:50.297Z,77.50
2018-06-11T02:33:48.090Z,76.20
2018-06-11T02:36:17.176Z,77.90
2018-06-11T02:38:46.226Z,76.10
2018-06-11T02:41:15.229Z,77.00
2018-06-11T02:43:44.199Z,78.70
2018-06-11T02:46:13.250Z,77.90
2018-06-11T02:48:42.259Z,78.50
2018-06-11T02:51:11.305Z,78.10
2018-06-11T02:53:40.285Z,77.40
2018-06-11T02:56:09.314Z,78.40
2018-06-11T02:58:38.350Z,78.20
2018-06-11T03:01:07.341Z,78.60
2018-06-11T03:03:36.341Z,79.10
2018-06-11T03:06:05.680Z,79.60
2018-06-11T03:08:34.821Z,79.80
2018-06-11T03:11:03.793Z,80.10
2018-06-11T03:13:32.775Z,79.10
2018-06-11T03:16:01.942Z,78.50
2018-06-11T03:18:30.969Z,78.20
2018-06-11T03:21:00.034Z,79.40
2018-06-11T03:23:29.029Z,79.40
2018-06-11T03:25:58.029Z,77.70
2018-06-11T03:28:27.029Z,77.70
2018-06-11T03:30:56.079Z,77.10
2018-06-11T03:33:25.105Z,77.80
2018-06-11T03:35:54.137Z,79.80
2018-06-11T03:40:51.873Z,80.10
2018-06-11T03:43:20.858Z,79.30
2018-06-11T03:45:49.837Z,78.80
2018-06-11T03:48:18.914Z,79.40
2018-06-11T03:50:47.911Z,80.60
2018-06-11T03:53:16.877Z,80.60
2018-06-11T03:55:45.877Z,80.70
2018-06-11T03:58:14.872Z,80.10
2018-06-11T04:00:43.895Z,79.20
2018-06-11T04:03:12.874Z,79.80
2018-06-11T04:05:41.892Z,79.10
2018-06-11T04:08:10.861Z,80.30
2018-06-11T04:10:39.899Z,79.40
2018-06-11T04:13:08.907Z,77.90
2018-06-11T04:15:37.940Z,80.80
2018-06-11T04:18:06.950Z,80.90
2018-06-11T04:20:35.945Z,81.30
2018-06-11T04:23:04.960Z,81.70
2018-06-11T04:25:33.973Z,80.00
2018-06-11T04:28:03.108Z,80.30
2018-06-11T04:30:32.182Z,81.00
2018-06-11T04:35:29.825Z,80.60
2018-06-11T04:37:58.892Z,80.60
2018-06-11T04:40:27.915Z,79.60
2018-06-11T04:42:56.902Z,80.40
2018-06-11T04:45:25.937Z,80.10
2018-06-11T04:50:23.678Z,79.30
2018-06-11T04:52:53.173Z,79.70
2018-06-11T04:55:22.154Z,80.00
2018-06-11T04:57:51.246Z,79.60
2018-06-11T05:00:20.315Z,79.40
2018-06-11T05:02:49.359Z,79.50
2018-06-11T05:05:18.367Z,79.10
2018-06-11T05:07:47.440Z,78.90
2018-06-11T05:10:16.470Z,78.20
2018-06-11T05:12:45.506Z,78.10
2018-06-11T05:15:14.608Z,77.60
2018-06-11T05:17:43.630Z,77.70
2018-06-11T05:20:12.823Z,77.80
2018-06-11T05:22:41.833Z,77.00
2018-06-11T05:25:10.819Z,76.20
2018-06-11T05:27:39.940Z,76.10
2018-06-11T05:30:08.953Z,75.20
2018-06-11T05:32:37.930Z,75.50
2018-06-11T05:37:35.581Z,73.80
2018-06-11T05:40:04.678Z,74.70
2018-06-11T05:42:33.774Z,73.90
2018-06-11T05:45:02.770Z,74.00
2018-06-11T05:47:31.774Z,73.80
2018-06-11T05:50:02.362Z,73.80
2018-06-11T05:52:31.440Z,73.60
2018-06-11T05:55:00.594Z,73.30
2018-06-11T05:57:29.565Z,73.70
2018-06-11T05:59:58.559Z,73.30
2018-06-11T06:02:27.667Z,73.30
2018-06-11T06:04:56.763Z,73.20
2018-06-11T06:07:26.161Z,73.10
2018-06-11T06:09:55.168Z,73.30
2018-06-11T06:12:24.206Z,73.30
2018-06-11T06:14:53.245Z,73.40
2018-06-11T06:17:24.034Z,73.20
2018-06-11T06:19:53.307Z,73.10
2018-06-11T06:22:22.257Z,73.10
2018-06-11T06:24:51.227Z,73.00
2018-06-11T06:27:20.221Z,72.70
2018-06-11T06:29:49.223Z,72.80
2018-06-11T06:32:18.241Z,72.80
2018-06-11T06:34:47.640Z,72.60
2018-06-11T06:37:16.589Z,73.00
2018-06-11T06:39:45.699Z,72.50
2018-06-11T06:42:14.707Z,73.30
2018-06-11T06:44:43.717Z,72.10
2018-06-11T06:47:12.731Z,71.80
2018-06-11T06:49:41.921Z,71.50
2018-06-11T06:52:11.008Z,71.60
2018-06-11T06:54:39.985Z,72.10
2018-06-11T06:57:08.941Z,71.80
2018-06-11T06:59:37.953Z,71.90
2018-06-11T07:02:07.251Z,72.10
2018-06-11T07:04:36.229Z,72.20
2018-06-11T07:07:05.320Z,72.50
2018-06-11T07:09:34.327Z,72.60
2018-06-11T07:12:03.399Z,72.10
2018-06-11T07:14:32.387Z,71.40
2018-06-11T07:21:58.705Z,72.00
2018-06-11T07:24:27.675Z,71.90
2018-06-11T07:26:56.647Z,71.70
2018-06-11T07:29:25.638Z,72.10
2018-06-11T07:31:54.681Z,72.20
2018-06-11T07:34:23.689Z,71.90
2018-06-11T07:36:52.703Z,72.10
2018-06-11T07:39:21.698Z,72.10
2018-06-11T07:41:50.740Z,71.80
2018-06-11T07:44:19.708Z,71.40
2018-06-11T07:46:48.729Z,71.70
2018-06-11T07:49:17.753Z,71.20
2018-06-11T07:51:46.831Z,71.20
2018-06-11T07:54:15.759Z,71.40
2018-06-11T07:56:44.730Z,70.50
2018-06-11T07:59:13.744Z,70.10
2018-06-11T08:01:42.882Z,70.20
2018-06-11T08:04:11.841Z,70.60
2018-06-11T08:06:40.811Z,69.60
2018-06-11T08:09:09.845Z,69.60
2018-06-11T08:11:38.856Z,67.80
2018-06-11T08:14:07.919Z,67.80
2018-06-11T08:16:36.921Z,69.00
2018-06-11T08:19:05.906Z,69.60
2018-06-11T08:21:34.910Z,69.10
2018-06-11T08:24:03.878Z,68.20
2018-06-11T08:26:32.844Z,68.80
2018-06-11T08:29:01.868Z,68.60
2018-06-11T08:31:30.875Z,68.60
2018-06-11T08:34:00.112Z,68.30
2018-06-11T08:36:29.138Z,67.20
2018-06-11T08:38:58.244Z,66.90
2018-06-11T08:41:27.386Z,68.00
2018-06-11T08:43:56.360Z,67.00
2018-06-11T08:46:25.335Z,64.80
2018-06-11T08:51:22.946Z,65.90
2018-06-11T08:53:51.966Z,66.10
2018-06-11T08:56:20.956Z,65.00
2018-06-11T08:58:49.962Z,65.10
2018-06-11T09:01:18.984Z,65.00
2018-06-11T09:03:48.038Z,63.80
2018-06-11T09:06:17.115Z,65.50
2018-06-11T09:08:46.196Z,65.20
2018-06-11T09:11:15.179Z,65.10
2018-06-11T09:13:44.242Z,63.90
2018-06-11T09:16:13.250Z,64.40
2018-06-11T09:18:42.240Z,63.70
2018-06-11T09:21:11.226Z,63.00
2018-06-11T09:23:40.274Z,61.80
2018-06-11T09:26:09.280Z,63.50
2018-06-11T09:28:38.255Z,62.60
2018-06-11T09:31:07.291Z,63.00
2018-06-11T09:33:36.303Z,61.90
2018-06-11T09:36:05.345Z,61.70
2018-06-11T09:38:34.302Z,63.70
2018-06-11T09:41:03.420Z,62.50
2018-06-11T09:43:32.468Z,60.50
2018-06-11T09:46:01.438Z,59.90
2018-06-11T09:48:30.442Z,61.10
2018-06-11T09:50:59.445Z,60.80
2018-06-11T09:53:28.564Z,59.70
2018-06-11T09:55:57.598Z,61.80
2018-06-11T09:58:27.049Z,59.70
2018-06-11T10:00:56.748Z,60.00
2018-06-11T10:03:27.056Z,60.80
2018-06-11T10:05:56.042Z,60.40
2018-06-11T10:08:25.076Z,60.00
2018-06-11T10:10:54.086Z,59.90
2018-06-11T10:13:23.126Z,60.00
2018-06-11T10:15:52.136Z,58.90
2018-06-11T10:18:21.115Z,59.20
2018-06-11T10:20:50.252Z,58.80
2018-06-11T10:23:19.385Z,60.20
2018-06-11T10:25:48.481Z,58.90
2018-06-11T10:28:17.446Z,59.50
2018-06-11T10:35:43.885Z,57.50
2018-06-11T10:38:12.935Z,58.50
2018-06-11T10:40:42.703Z,59.00
2018-06-11T10:43:11.757Z,57.80
2018-06-11T10:45:40.794Z,59.10
2018-06-11T10:48:09.905Z,57.40
2018-06-11T10:50:39.026Z,56.90
2018-06-11T10:53:08.127Z,57.00
2018-06-11T10:55:37.132Z,58.50
2018-06-11T10:58:06.146Z,56.20
2018-06-11T11:00:35.111Z,58.00
2018-06-11T11:03:04.174Z,56.80
2018-06-11T11:05:33.251Z,57.50
2018-06-11T11:08:02.291Z,55.80
2018-06-11T11:10:31.383Z,55.90
2018-06-11T11:13:00.479Z,55.70
2018-06-11T11:15:29.475Z,55.80
2018-06-11T11:17:58.509Z,56.80
2018-06-11T11:20:27.520Z,55.60
2018-06-11T11:22:57.158Z,55.50
2018-06-11T11:25:26.269Z,53.90
2018-06-11T11:27:55.257Z,55.00
2018-06-11T11:30:24.271Z,53.90
2018-06-11T11:32:53.275Z,52.90
2018-06-11T11:35:22.347Z,54.10
2018-06-11T11:37:51.357Z,53.30
2018-06-11T11:40:20.361Z,53.10
2018-06-11T11:42:49.385Z,52.30
2018-06-11T11:45:18.370Z,53.20
2018-06-11T11:47:47.363Z,51.90
2018-06-11T11:50:16.322Z,51.50
2018-06-11T11:52:45.317Z,53.50
2018-06-11T11:55:15.300Z,52.40
2018-06-11T11:57:44.253Z,50.30
2018-06-11T12:00:13.354Z,51.40
2018-06-11T12:02:42.343Z,49.00
2018-06-11T12:05:11.371Z,51.10
2018-06-11T12:07:40.429Z,49.60
2018-06-11T12:10:09.771Z,50.10
2018-06-11T12:12:38.789Z,50.80
2018-06-11T12:15:07.835Z,50.40
2018-06-11T12:17:36.929Z,50.70
2018-06-11T12:20:05.902Z,50.60
2018-06-11T12:22:34.936Z,49.20
2018-06-11T12:25:03.965Z,49.70
2018-06-11T12:27:32.976Z,48.30
2018-06-11T12:30:01.935Z,50.00
2018-06-11T12:32:31.029Z,50.00
2018-06-11T12:35:00.036Z,50.20
2018-06-11T12:37:29.026Z,49.00
2018-06-11T12:39:58.050Z,48.60
2018-06-11T12:42:27.061Z,48.20
2018-06-11T12:44:56.089Z,48.00
2018-06-11T12:47:25.054Z,48.00
2018-06-11T12:49:54.114Z,47.70
2018-06-11T12:52:23.099Z,47.50
2018-06-11T12:54:52.171Z,46.80
2018-06-11T12:57:21.152Z,47.50
2018-06-11T12:59:50.112Z,47.10
2018-06-11T13:02:19.159Z,46.30
2018-06-11T13:04:48.247Z,47.70
2018-06-11T13:07:17.342Z,47.70
2018-06-11T13:09:46.402Z,46.70
2018-06-11T13:12:15.382Z,45.30
2018-06-11T13:14:44.404Z,47.90
2018-06-11T13:17:13.364Z,46.30
2018-06-11T13:19:42.337Z,46.90
2018-06-11T13:22:11.449Z,45.20
2018-06-11T13:24:40.432Z,46.40
2018-06-11T13:27:09.431Z,47.50
2018-06-11T13:29:38.407Z,47.20
2018-06-11T13:32:07.387Z,45.90
2018-06-11T13:34:36.506Z,46.40
2018-06-11T13:37:05.543Z,46.30
2018-06-11T13:39:34.569Z,45.80
2018-06-11T13:42:03.579Z,47.00
2018-06-11T13:44:32.651Z,46.30
2018-06-11T13:47:01.666Z,45.50
2018-06-11T13:49:30.796Z,46.50
2018-06-11T13:51:59.741Z,47.90
2018-06-11T13:54:28.884Z,46.20
2018-06-11T13:56:57.920Z,44.40
2018-06-11T13:59:26.856Z,45.60
2018-06-11T14:01:55.876Z,45.10
2018-06-11T14:04:24.899Z,45.80
2018-06-11T14:06:53.868Z,44.30
2018-06-11T14:09:22.890Z,45.10
2018-06-11T14:11:51.887Z,43.80
2018-06-11T14:14:20.947Z,43.30
2018-06-11T14:16:49.976Z,44.30
2018-06-11T14:19:19.099Z,45.20
2018-06-11T14:21:48.150Z,44.80
2018-06-11T14:24:17.142Z,45.50
2018-06-11T14:26:46.345Z,46.00
2018-06-11T14:29:15.320Z,44.90
2018-06-11T14:31:44.489Z,44.20
2018-06-11T14:34:13.498Z,45.10
2018-06-11T14:36:42.513Z,45.20
2018-06-11T14:39:11.497Z,45.00
2018-06-11T14:41:40.479Z,45.00
2018-06-11T14:44:09.478Z,45.70
2018-06-11T14:46:38.478Z,45.30
2018-06-11T14:49:07.802Z,45.20
2018-06-11T14:51:36.794Z,45.00
2018-06-11T14:54:05.787Z,45.50
2018-06-11T14:56:34.816Z,45.50
2018-06-11T14:59:03.881Z,46.40
2018-06-11T15:01:32.868Z,46.60
2018-06-11T15:04:01.849Z,46.80
2018-06-11T15:06:31.066Z,47.20
2018-06-11T15:09:00.165Z,46.50
2018-06-11T15:11:29.190Z,48.10
2018-06-11T15:13:58.146Z,48.50
2018-06-11T15:16:27.152Z,48.10
2018-06-11T15:18:56.236Z,47.90
2018-06-11T15:21:25.196Z,47.20
2018-06-11T15:23:54.326Z,47.50
2018-06-11T15:26:23.392Z,46.60
2018-06-11T15:28:52.450Z,46.80
2018-06-11T15:31:21.513Z,47.10
2018-06-11T15:33:50.533Z,47.80
2018-06-11T15:36:19.535Z,47.20
2018-06-11T15:38:48.517Z,47.80
2018-06-11T15:41:17.589Z,47.50
2018-06-11T15:43:46.566Z,47.60
2018-06-11T15:46:15.563Z,48.50
2018-06-11T15:48:44.528Z,48.40
2018-06-11T15:51:13.510Z,48.20
2018-06-11T15:53:42.538Z,48.80
2018-06-11T15:56:11.544Z,49.40
2018-06-11T15:58:40.501Z,50.10
2018-06-11T16:01:09.495Z,51.20
2018-06-11T16:06:07.147Z,51.60
2018-06-11T16:08:36.237Z,51.70
2018-06-11T16:11:05.346Z,52.60
2018-06-11T16:13:34.302Z,54.00
2018-06-11T16:16:03.347Z,53.90
2018-06-11T16:18:32.360Z,54.90
2018-06-11T16:21:01.351Z,53.50
2018-06-11T16:23:30.386Z,54.00
2018-06-11T16:25:59.495Z,56.40
2018-06-11T16:28:28.505Z,56.60
2018-06-11T16:30:57.479Z,56.80
2018-06-11T16:33:26.529Z,55.30
2018-06-11T16:35:55.554Z,54.80
2018-06-11T16:38:24.541Z,56.20
2018-06-11T16:40:53.621Z,57.30
2018-06-11T16:43:22.627Z,56.00
2018-06-11T16:45:51.633Z,55.70
2018-06-11T16:48:20.686Z,59.10
2018-06-11T16:50:49.667Z,56.20
2018-06-11T16:53:18.617Z,56.10
2018-06-11T16:55:47.615Z,57.50
2018-06-11T16:58:16.700Z,57.80
2018-06-11T17:00:45.688Z,56.90
2018-06-11T17:03:14.633Z,58.20
2018-06-11T17:05:43.614Z,58.90
2018-06-11T17:08:12.655Z,57.30
2018-06-11T17:10:41.649Z,57.30
2018-06-11T17:13:10.673Z,58.10
2018-06-11T17:15:39.657Z,57.70
2018-06-11T17:18:08.716Z,59.00
2018-06-11T17:20:37.692Z,56.90
2018-06-11T17:23:06.679Z,59.20
2018-06-11T17:25:35.723Z,57.60
2018-06-11T17:28:04.767Z,57.70
2018-06-11T17:30:33.801Z,57.40
2018-06-11T17:33:02.779Z,56.90
2018-06-11T17:35:31.875Z,58.90
2018-06-11T17:38:00.875Z,58.00
2018-06-11T17:40:29.840Z,58.90
2018-06-11T17:42:58.909Z,58.10
2018-06-11T17:45:27.858Z,59.10
2018-06-11T17:47:56.869Z,57.60
2018-06-11T17:50:25.932Z,59.20
2018-06-11T17:52:55.021Z,58.10
2018-06-11T17:55:24.111Z,57.50
2018-06-11T18:00:22.135Z,58.50
2018-06-11T18:02:51.106Z,59.40
2018-06-11T18:05:20.071Z,59.40
2018-06-11T18:07:49.082Z,59.20
2018-06-11T18:10:18.062Z,58.90
2018-06-11T18:12:47.030Z,58.50
2018-06-11T18:15:16.192Z,58.90
2018-06-11T18:17:45.168Z,58.70
2018-06-11T18:20:14.198Z,58.40
2018-06-11T18:22:43.218Z,59.10
2018-06-11T18:25:12.270Z,58.20
2018-06-11T18:27:41.319Z,59.30
2018-06-11T18:30:10.319Z,58.60
2018-06-11T18:32:39.315Z,59.60
2018-06-11T18:35:08.340Z,59.60
2018-06-11T18:37:37.425Z,59.10
2018-06-11T18:40:06.473Z,59.00
2018-06-11T18:42:35.519Z,58.70
2018-06-11T18:45:04.888Z,59.80
2018-06-11T18:47:33.949Z,59.80
2018-06-11T18:50:02.972Z,59.90
2018-06-11T18:52:31.945Z,60.30
2018-06-11T18:55:00.950Z,59.20
2018-06-11T18:57:29.997Z,60.10
2018-06-11T18:59:58.989Z,60.50
2018-06-11T19:02:27.970Z,59.00
2018-06-11T19:04:56.970Z,59.50
2018-06-11T19:07:25.974Z,59.30
2018-06-11T19:09:55.069Z,59.30
2018-06-11T19:12:24.166Z,60.60
2018-06-11T19:14:53.168Z,61.60
2018-06-11T19:17:22.469Z,61.90
2018-06-11T19:19:51.524Z,61.60
2018-06-11T19:22:20.535Z,61.60
2018-06-11T19:24:49.558Z,60.40
2018-06-11T19:27:19.558Z,60.40
2018-06-11T19:29:48.629Z,60.60
2018-06-11T19:32:17.609Z,59.60
2018-06-11T19:34:46.580Z,59.50
2018-06-11T19:37:15.530Z,60.00
2018-06-11T19:39:44.559Z,60.60
2018-06-11T19:42:19.951Z,60.60
2018-06-11T19:44:48.957Z,60.10
2018-06-11T19:47:18.162Z,61.50
2018-06-11T19:49:47.181Z,61.40
2018-06-11T19:52:16.165Z,61.40
2018-06-11T19:54:45.181Z,61.10
2018-06-11T19:57:14.231Z,60.90
2018-06-11T19:59:43.197Z,61.50
2018-06-11T20:02:12.149Z,61.50
2018-06-11T20:04:41.086Z,61.40
2018-06-11T20:07:10.075Z,61.20
2018-06-11T20:09:39.071Z,60.80
2018-06-11T20:12:08.017Z,61.40
2018-06-11T20:14:37.104Z,61.10
2018-06-11T20:17:06.069Z,60.90
2018-06-11T20:19:35.133Z,61.40
2018-06-11T20:22:04.073Z,61.10
2018-06-11T20:24:33.033Z,60.10
2018-06-11T20:27:02.054Z,60.60
2018-06-11T20:29:31.046Z,62.20
2018-06-11T20:32:00.025Z,61.40
2018-06-11T20:34:29.071Z,60.80
2018-06-11T20:36:58.037Z,60.00
2018-06-11T20:39:27.040Z,61.00
2018-06-11T20:41:56.036Z,61.20
2018-06-11T20:44:25.019Z,60.50
2018-06-11T20:46:54.021Z,61.20
2018-06-11T20:49:23.027Z,61.80
2018-06-11T20:51:52.002Z,61.70
2018-06-11T20:54:20.969Z,62.00
2018-06-11T20:56:49.953Z,61.90
2018-06-11T20:59:18.945Z,60.80
2018-06-11T21:01:47.927Z,61.20
2018-06-11T21:04:16.921Z,61.90
2018-06-11T21:06:46.041Z,61.60
2018-06-11T21:09:15.086Z,60.50
2018-06-11T21:11:44.074Z,61.00
2018-06-11T21:14:13.041Z,60.80
2018-06-11T21:16:42.099Z,60.20
2018-06-11T21:19:11.089Z,60.60
2018-06-11T21:24:09.091Z,62.50
2018-06-11T21:26:38.127Z,62.00
2018-06-11T21:29:07.124Z,61.80
2018-06-11T21:31:36.103Z,62.50
2018-06-11T21:34:05.072Z,62.70
2018-06-11T21:36:34.053Z,63.20
2018-06-11T21:39:03.173Z,63.20
2018-06-11T21:41:32.133Z,64.00
2018-06-11T21:44:01.085Z,63.40
2018-06-11T21:46:30.357Z,64.10
2018-06-11T21:48:59.600Z,63.70
2018-06-11T21:51:28.569Z,63.80
2018-06-11T21:53:57.572Z,63.20
2018-06-11T21:56:26.561Z,63.30
2018-06-11T21:58:55.561Z,63.10
2018-06-11T22:01:24.600Z,63.60
2018-06-11T22:03:53.733Z,62.90
2018-06-11T22:06:22.616Z,62.90
2018-06-11T22:08:51.590Z,63.40
2018-06-11T22:11:20.561Z,63.60
2018-06-11T22:13:49.532Z,63.60
2018-06-11T22:16:18.523Z,63.40
2018-06-11T22:18:47.507Z,63.50
2018-06-11T22:21:16.508Z,63.80
2018-06-11T22:23:45.564Z,63.40
2018-06-11T22:26:14.568Z,65.00
2018-06-11T22:28:43.520Z,64.30
2018-06-11T22:31:12.510Z,63.90
2018-06-11T22:33:41.470Z,64.10
2018-06-11T22:36:10.458Z,63.80
2018-06-11T22:38:39.438Z,63.70
2018-06-11T22:41:08.471Z,63.10
2018-06-11T22:43:37.429Z,63.30
2018-06-11T22:46:06.395Z,64.20
2018-06-11T22:48:35.478Z,64.80
2018-06-11T22:51:04.485Z,64.80
2018-06-11T22:53:33.446Z,64.90
2018-06-11T22:56:02.396Z,65.80
2018-06-11T22:58:31.417Z,66.00
2018-06-11T23:01:00.424Z,65.60
2018-06-11T23:03:29.400Z,66.60
2018-06-11T23:05:58.462Z,66.20
2018-06-11T23:08:27.469Z,66.70
2018-06-11T23:10:56.460Z,66.80
2018-06-11T23:13:25.444Z,67.90
2018-06-11T23:15:54.449Z,67.00
2018-06-11T23:18:23.409Z,68.60
2018-06-11T23:20:52.417Z,68.10
2018-06-11T23:23:21.417Z,67.90
2018-06-11T23:25:50.409Z,68.40
2018-06-11T23:28:19.398Z,66.10
2018-06-11T23:30:48.393Z,67.50
2018-06-11T23:33:17.361Z,67.80
2018-06-11T23:35:46.333Z,68.10
2018-06-11T23:38:15.341Z,68.80
2018-06-11T23:40:44.353Z,68.80
2018-06-11T23:43:13.313Z,69.10
2018-06-11T23:45:42.325Z,68.70
2018-06-11T23:48:11.313Z,69.60
2018-06-11T23:50:40.409Z,68.70
2018-06-11T23:53:09.377Z,67.70
2018-06-11T23:55:38.356Z,67.30
2018-06-11T23:58:07.335Z,70.10
